Terminal Aerodrome Forecast
Issued by NWS Quad Cities IA IL

Home | Current Version | Previous Version | Text Only | Print | Product List | Glossary On
Versions: 1 2 3 4 5 6 7 8 9 10 11 12 13 14
000
FTUS43 KDVN 250010 AAA
TAFMLI
TAF AMD
KMLI 250010Z 2500/2524 15012KT 6SM -SHRA BR BKN050
      TEMPO 2500/2501 VRB30G45KT 2SM TSRA BR BKN012 OVC025CB
     FM250500 18007KT 2SM -SHRA BR BKN009 OVC012
     FM251200 23014G22KT 5SM BR VCSH BKN020=

USA.gov is the U.S. government's official web portal to all federal, state and local government web resources and services.